UTAA

Ashgabat Airport

Ashgabat, Turkmenistan
TAF UTAA 161645Z 1618/1718 20014KT 6000 SCT050 TX42/1711Z 530009 TEMPO 1618/1621 28018KT BECMG 1703/1705 34016KT BECMG 1707/1709 06014G24KT 3000 DRDU 530009 530905
Issued Valid From Valid To
Jul-16 @ 16:45 UTC
(3 hours ago)
Jul-16 @ 18:00 UTC
(2 hours ago)
Jul-17 @ 18:00 UTC
(in 22 hours)
Jul-16 @ 18:00 to Jul-17 @ 03:00
TAF UTAA 161645Z 1618/1718 20014KT 6000 SCT050 TX42/1711Z 530009
Wind Visibility Clouds Turbulence
200° at 14 knots 6,003 meters
  • Scattered at 5,000' AGL
Frequent moderate clear air turbulence expected at the surface extending to 9,000' AGL
Temporary Jul-16 @ 18:00 to Jul-16 @ 21:00
TEMPO 1618/1621 28018KT
Wind
280° at 18 knots
Becoming Jul-17 @ 03:00 to Jul-17 @ 07:00
BECMG 1703/1705 34016KT
Wind Visibility Clouds
340° at 16 knots 6,003 meters
  • Scattered at 5,000' AGL
Becoming Jul-17 @ 07:00 to Jul-17 @ 18:00
BECMG 1707/1709 06014G24KT 3000 DRDU 530009 530905
Wind Visibility Clouds Conditions Turbulence
60° at 14 knots
 Gusting to 24 knots
2,993 meters
  • Scattered at 5,000' AGL
  • Low drifting
  • Dust
Frequent moderate clear air turbulence expected at 9,000' AGL extending to 14,000' AGL
TAF UTAA 161645Z 1618/1718 20014KT 6000 SCT050 TX42/1711Z 530009 TEMPO 1618/1621 28018KT BECMG 1703/1705 34016KT BECMG 1707/1709 06014G24KT 3000 DRDU 530009 530905
Issued Jul-16 @ 16:45 UTC
(3 hours ago)
Valid From Jul-16 @ 18:00 UTC
(2 hours ago)
Valid To Jul-17 @ 18:00 UTC
(in 22 hours)
Jul-16 @ 18:00 - Jul-17 @ 03:00
Wind Visibility
200° at 14 knots 6,003 meters
Clouds
  • Scattered at 5,000' AGL
Temporary Jul-16 @ 18:00 - Jul-16 @ 21:00
Wind
280° at 18 knots
Becoming Jul-17 @ 03:00 - Jul-17 @ 07:00
Wind Visibility
340° at 16 knots 6,003 meters
Clouds
  • Scattered at 5,000' AGL
Becoming Jul-17 @ 07:00 - Jul-17 @ 18:00
Wind Visibility
60° at 14 knots
 Gusting to 24 knots
2,993 meters
Clouds
  • Scattered at 5,000' AGL
Conditions
  • Low drifting
  • Dust